首页
METAR-TAF:

METAR-TAF

机场 :

吉隆坡国际机场

吉隆坡, 马来西亚

纬度: 02-44N, 经度: 101-42E, 海拔: 21米

当前天气观测

该预报发布于27分钟前的01:00 UTC
风速8节,风向东转东北,在东转东南之间变化
温度 28°C
湿度 70%
气压 1010 hPa
能见度10公里或以上
少量云层高于1800英尺

METAR: WMKK 260100Z 06008KT 360V120 9999 FEW018 28/22 Q1010 NOSIG

时间: 09:27 (01:27 UTC)

预报

该预报发布于2小时和27分钟前的23:00 UTC
预报有效从26日的 00点(UTC)到 27日的 06点(UTC)
风速6节,风向东转东北
能见度10公里或以上
少量云层高于1800英尺

TAF: WMKK 252300Z 2600/2706 06006KT 9999 FEW018

超过4000个机场的气象观测和天气预报(METAR&TAF报告)。

可查询的气象台以黄色和红色小点在地图上表示。

将鼠标移到小点上方,可查看气象台名称。

然后点击查看天气观测和预报。

如需切换地图:点击带黑十字的绿色按钮放大地图;点击带横线的绿色按钮缩小地图;或者点击绿色箭头查看邻近地区的地图。


METAR-TAF: